Woodburn, Indiana
Current Conditions -  °F | °C
As of 4:55 AM on Tuesday 21 Oct 2014 (Local Time) from KGWB Reporting Station
Overcast Overcast  
Wind Chill: 43°   Ceiling: 1700
Heat Index: 46°   Visibility: 10mi
Dew Point: 41°   Wind: 7mph
Humidity: 81%   Direction: 310°NW
Pressure: 29.96"   Gusts: NA
Location:  41.13°N, 84.85°W
Report Text: KGWB 210855Z AUTO 31006KT 10SM OVC017 08/05 A2996 RMK AO2
Loading
Personal Weather Stations






























Interactive Weather Map
Tropical Storm Tracking
New forecast layout! Learn more

10-Day Weather Forecast

Advertisements
Track Severe Weather on mobile